sensor_id;sensor_type;location;lat;lon;timestamp;P1;durP1;ratioP1;P2;durP2;ratioP2
21472;SDS011;10898;48.072;11.682;2023-05-07T00:00:50;6.55;;;6.03;;
21472;SDS011;10898;48.072;11.682;2023-05-07T00:02:52;8.93;;;6.78;;
21472;SDS011;10898;48.072;11.682;2023-05-07T00:04:55;7.57;;;6.68;;
21472;SDS011;10898;48.072;11.682;2023-05-07T00:08:59;6.63;;;6.03;;
21472;SDS011;10898;48.072;11.682;2023-05-07T00:11:02;7.18;;;6.47;;
21472;SDS011;10898;48.072;11.682;2023-05-07T00:13:04;7.72;;;7.03;;
21472;SDS011;10898;48.072;11.682;2023-05-07T00:15:07;8.15;;;6.18;;
21472;SDS011;10898;48.072;11.682;2023-05-07T00:17:09;7.20;;;6.30;;
21472;SDS011;10898;48.072;11.682;2023-05-07T00:19:12;6.63;;;6.03;;
21472;SDS011;10898;48.072;11.682;2023-05-07T00:21:14;6.65;;;5.93;;
21472;SDS011;10898;48.072;11.682;2023-05-07T00:23:16;7.15;;;5.80;;
21472;SDS011;10898;48.072;11.682;2023-05-07T00:25:19;6.97;;;6.35;;
21472;SDS011;10898;48.072;11.682;2023-05-07T00:27:21;7.72;;;6.50;;
21472;SDS011;10898;48.072;11.682;2023-05-07T00:29:23;7.05;;;6.35;;
21472;SDS011;10898;48.072;11.682;2023-05-07T00:31:26;8.98;;;6.07;;
21472;SDS011;10898;48.072;11.682;2023-05-07T00:33:28;7.28;;;6.45;;
21472;SDS011;10898;48.072;11.682;2023-05-07T00:35:30;6.82;;;6.22;;
21472;SDS011;10898;48.072;11.682;2023-05-07T00:37:33;10.90;;;6.10;;
21472;SDS011;10898;48.072;11.682;2023-05-07T00:39:35;7.15;;;6.40;;
21472;SDS011;10898;48.072;11.682;2023-05-07T00:41:37;9.88;;;6.55;;
21472;SDS011;10898;48.072;11.682;2023-05-07T00:43:39;6.57;;;5.97;;
21472;SDS011;10898;48.072;11.682;2023-05-07T00:45:42;7.35;;;6.32;;
21472;SDS011;10898;48.072;11.682;2023-05-07T00:47:44;10.23;;;6.35;;
21472;SDS011;10898;48.072;11.682;2023-05-07T00:49:46;6.47;;;5.93;;
21472;SDS011;10898;48.072;11.682;2023-05-07T00:51:48;8.00;;;6.43;;
21472;SDS011;10898;48.072;11.682;2023-05-07T00:53:51;7.72;;;6.22;;
21472;SDS011;10898;48.072;11.682;2023-05-07T00:55:53;6.80;;;5.97;;
21472;SDS011;10898;48.072;11.682;2023-05-07T00:57:56;10.38;;;6.10;;
21472;SDS011;10898;48.072;11.682;2023-05-07T00:59:58;10.18;;;6.65;;
21472;SDS011;10898;48.072;11.682;2023-05-07T01:02:00;7.03;;;6.32;;
21472;SDS011;10898;48.072;11.682;2023-05-07T01:04:03;11.75;;;6.63;;
21472;SDS011;10898;48.072;11.682;2023-05-07T01:06:05;8.98;;;6.63;;
21472;SDS011;10898;48.072;11.682;2023-05-07T01:08:09;7.82;;;6.55;;
21472;SDS011;10898;48.072;11.682;2023-05-07T01:10:11;6.78;;;6.10;;
21472;SDS011;10898;48.072;11.682;2023-05-07T01:14:16;6.60;;;6.00;;
21472;SDS011;10898;48.072;11.682;2023-05-07T01:16:19;6.80;;;6.20;;
21472;SDS011;10898;48.072;11.682;2023-05-07T01:18:21;7.95;;;6.32;;
21472;SDS011;10898;48.072;11.682;2023-05-07T01:20:24;8.98;;;6.25;;
21472;SDS011;10898;48.072;11.682;2023-05-07T01:22:31;7.93;;;5.60;;
21472;SDS011;10898;48.072;11.682;2023-05-07T01:24:35;6.30;;;5.80;;
21472;SDS011;10898;48.072;11.682;2023-05-07T01:26:38;6.45;;;5.82;;
21472;SDS011;10898;48.072;11.682;2023-05-07T01:30:43;7.00;;;6.30;;
21472;SDS011;10898;48.072;11.682;2023-05-07T01:35:10;6.55;;;5.90;;
21472;SDS011;10898;48.072;11.682;2023-05-07T01:37:13;6.78;;;6.13;;
21472;SDS011;10898;48.072;11.682;2023-05-07T01:41:18;7.30;;;5.90;;
21472;SDS011;10898;48.072;11.682;2023-05-07T01:43:21;6.10;;;5.60;;
21472;SDS011;10898;48.072;11.682;2023-05-07T01:45:23;6.90;;;5.85;;
21472;SDS011;10898;48.072;11.682;2023-05-07T01:47:25;7.10;;;6.00;;
21472;SDS011;10898;48.072;11.682;2023-05-07T01:51:31;6.80;;;6.20;;
21472;SDS011;10898;48.072;11.682;2023-05-07T01:53:37;6.57;;;5.97;;
21472;SDS011;10898;48.072;11.682;2023-05-07T01:55:39;7.00;;;6.30;;
21472;SDS011;10898;48.072;11.682;2023-05-07T01:57:41;7.03;;;6.30;;
21472;SDS011;10898;48.072;11.682;2023-05-07T01:59:44;6.28;;;5.70;;
21472;SDS011;10898;48.072;11.682;2023-05-07T02:01:46;10.95;;;6.15;;
21472;SDS011;10898;48.072;11.682;2023-05-07T02:03:48;6.20;;;5.60;;
21472;SDS011;10898;48.072;11.682;2023-05-07T02:07:53;6.50;;;5.88;;
21472;SDS011;10898;48.072;11.682;2023-05-07T02:09:55;8.95;;;6.15;;
21472;SDS011;10898;48.072;11.682;2023-05-07T02:11:58;6.38;;;5.78;;
21472;SDS011;10898;48.072;11.682;2023-05-07T02:14:00;6.32;;;5.78;;
21472;SDS011;10898;48.072;11.682;2023-05-07T02:16:02;8.52;;;5.97;;
21472;SDS011;10898;48.072;11.682;2023-05-07T02:18:05;8.75;;;5.47;;
21472;SDS011;10898;48.072;11.682;2023-05-07T02:20:08;8.13;;;5.95;;
21472;SDS011;10898;48.072;11.682;2023-05-07T02:22:14;6.95;;;6.25;;
21472;SDS011;10898;48.072;11.682;2023-05-07T02:24:16;7.00;;;6.05;;
21472;SDS011;10898;48.072;11.682;2023-05-07T02:26:19;8.43;;;6.25;;
21472;SDS011;10898;48.072;11.682;2023-05-07T02:28:22;6.13;;;5.50;;
21472;SDS011;10898;48.072;11.682;2023-05-07T02:30:25;6.63;;;6.03;;
21472;SDS011;10898;48.072;11.682;2023-05-07T02:32:27;6.45;;;5.78;;
21472;SDS011;10898;48.072;11.682;2023-05-07T02:34:29;6.78;;;6.18;;
21472;SDS011;10898;48.072;11.682;2023-05-07T02:36:31;6.75;;;6.07;;
21472;SDS011;10898;48.072;11.682;2023-05-07T02:38:34;6.13;;;5.63;;
21472;SDS011;10898;48.072;11.682;2023-05-07T02:40:36;7.10;;;6.40;;
21472;SDS011;10898;48.072;11.682;2023-05-07T02:42:41;6.75;;;6.03;;
21472;SDS011;10898;48.072;11.682;2023-05-07T02:44:43;6.38;;;5.88;;
21472;SDS011;10898;48.072;11.682;2023-05-07T02:46:46;10.52;;;5.65;;
21472;SDS011;10898;48.072;11.682;2023-05-07T02:48:48;7.07;;;5.97;;
21472;SDS011;10898;48.072;11.682;2023-05-07T02:50:50;6.53;;;5.93;;
21472;SDS011;10898;48.072;11.682;2023-05-07T02:52:52;6.90;;;6.20;;
21472;SDS011;10898;48.072;11.682;2023-05-07T02:54:54;7.07;;;6.05;;
21472;SDS011;10898;48.072;11.682;2023-05-07T02:56:57;8.05;;;6.50;;
21472;SDS011;10898;48.072;11.682;2023-05-07T02:58:59;10.60;;;5.80;;
21472;SDS011;10898;48.072;11.682;2023-05-07T03:01:01;6.45;;;5.80;;
21472;SDS011;10898;48.072;11.682;2023-05-07T03:03:03;6.45;;;5.65;;
21472;SDS011;10898;48.072;11.682;2023-05-07T03:05:06;6.47;;;5.80;;
21472;SDS011;10898;48.072;11.682;2023-05-07T03:07:09;6.43;;;5.80;;
21472;SDS011;10898;48.072;11.682;2023-05-07T03:09:11;6.50;;;5.57;;
21472;SDS011;10898;48.072;11.682;2023-05-07T03:11:13;6.32;;;5.82;;
21472;SDS011;10898;48.072;11.682;2023-05-07T03:13:16;8.05;;;6.03;;
21472;SDS011;10898;48.072;11.682;2023-05-07T03:15:18;6.50;;;5.90;;
21472;SDS011;10898;48.072;11.682;2023-05-07T03:17:20;8.27;;;6.43;;
21472;SDS011;10898;48.072;11.682;2023-05-07T03:19:22;7.40;;;5.68;;
21472;SDS011;10898;48.072;11.682;2023-05-07T03:21:25;6.43;;;5.82;;
21472;SDS011;10898;48.072;11.682;2023-05-07T03:23:27;7.55;;;6.65;;
21472;SDS011;10898;48.072;11.682;2023-05-07T03:25:29;9.05;;;5.93;;
21472;SDS011;10898;48.072;11.682;2023-05-07T03:27:33;6.03;;;5.53;;
21472;SDS011;10898;48.072;11.682;2023-05-07T03:29:35;6.07;;;5.47;;
21472;SDS011;10898;48.072;11.682;2023-05-07T03:31:37;6.40;;;5.80;;
21472;SDS011;10898;48.072;11.682;2023-05-07T03:33:53;6.72;;;6.13;;
21472;SDS011;10898;48.072;11.682;2023-05-07T03:35:55;8.52;;;6.05;;
21472;SDS011;10898;48.072;11.682;2023-05-07T03:37:57;7.88;;;5.68;;
21472;SDS011;10898;48.072;11.682;2023-05-07T03:40:00;7.00;;;5.40;;
21472;SDS011;10898;48.072;11.682;2023-05-07T03:42:02;6.72;;;6.03;;
21472;SDS011;10898;48.072;11.682;2023-05-07T03:44:04;6.57;;;5.80;;
21472;SDS011;10898;48.072;11.682;2023-05-07T03:46:07;6.28;;;5.72;;
21472;SDS011;10898;48.072;11.682;2023-05-07T03:48:09;6.45;;;5.75;;
21472;SDS011;10898;48.072;11.682;2023-05-07T03:50:11;6.85;;;6.03;;
21472;SDS011;10898;48.072;11.682;2023-05-07T03:52:14;6.53;;;5.28;;
21472;SDS011;10898;48.072;11.682;2023-05-07T03:54:16;6.80;;;6.10;;
21472;SDS011;10898;48.072;11.682;2023-05-07T03:56:18;6.72;;;6.05;;
21472;SDS011;10898;48.072;11.682;2023-05-07T03:58:21;8.48;;;5.85;;
21472;SDS011;10898;48.072;11.682;2023-05-07T04:00:24;8.63;;;5.95;;
21472;SDS011;10898;48.072;11.682;2023-05-07T04:02:26;6.15;;;5.43;;
21472;SDS011;10898;48.072;11.682;2023-05-07T04:04:28;6.57;;;5.88;;
21472;SDS011;10898;48.072;11.682;2023-05-07T04:06:33;5.97;;;5.47;;
21472;SDS011;10898;48.072;11.682;2023-05-07T04:08:36;6.82;;;6.20;;
21472;SDS011;10898;48.072;11.682;2023-05-07T04:10:38;7.10;;;6.25;;
21472;SDS011;10898;48.072;11.682;2023-05-07T04:12:40;6.28;;;5.78;;
21472;SDS011;10898;48.072;11.682;2023-05-07T04:14:42;6.72;;;6.05;;
21472;SDS011;10898;48.072;11.682;2023-05-07T04:16:45;6.35;;;5.80;;
21472;SDS011;10898;48.072;11.682;2023-05-07T04:18:47;5.72;;;5.25;;
21472;SDS011;10898;48.072;11.682;2023-05-07T04:20:49;6.63;;;5.75;;
21472;SDS011;10898;48.072;11.682;2023-05-07T04:22:51;5.95;;;5.45;;
21472;SDS011;10898;48.072;11.682;2023-05-07T04:24:54;6.32;;;5.82;;
21472;SDS011;10898;48.072;11.682;2023-05-07T04:26:56;6.13;;;5.38;;
21472;SDS011;10898;48.072;11.682;2023-05-07T04:29:00;6.68;;;5.82;;
21472;SDS011;10898;48.072;11.682;2023-05-07T04:31:02;6.65;;;5.80;;
21472;SDS011;10898;48.072;11.682;2023-05-07T04:33:04;6.82;;;5.68;;
21472;SDS011;10898;48.072;11.682;2023-05-07T04:35:08;6.28;;;5.68;;
21472;SDS011;10898;48.072;11.682;2023-05-07T04:37:10;6.15;;;5.55;;
21472;SDS011;10898;48.072;11.682;2023-05-07T04:39:12;8.27;;;6.10;;
21472;SDS011;10898;48.072;11.682;2023-05-07T04:41:14;7.88;;;6.30;;
21472;SDS011;10898;48.072;11.682;2023-05-07T04:43:17;5.88;;;5.38;;
21472;SDS011;10898;48.072;11.682;2023-05-07T04:45:20;5.90;;;5.47;;
21472;SDS011;10898;48.072;11.682;2023-05-07T04:47:22;6.00;;;5.50;;
21472;SDS011;10898;48.072;11.682;2023-05-07T04:49:24;6.30;;;5.70;;
21472;SDS011;10898;48.072;11.682;2023-05-07T04:51:26;6.35;;;5.75;;
21472;SDS011;10898;48.072;11.682;2023-05-07T04:53:29;6.43;;;5.82;;
21472;SDS011;10898;48.072;11.682;2023-05-07T04:55:31;7.55;;;6.38;;
21472;SDS011;10898;48.072;11.682;2023-05-07T04:57:33;6.55;;;5.90;;
21472;SDS011;10898;48.072;11.682;2023-05-07T04:59:35;6.80;;;6.10;;
21472;SDS011;10898;48.072;11.682;2023-05-07T05:01:38;6.95;;;6.22;;
21472;SDS011;10898;48.072;11.682;2023-05-07T05:03:40;6.60;;;6.00;;
21472;SDS011;10898;48.072;11.682;2023-05-07T05:05:42;5.85;;;5.40;;
21472;SDS011;10898;48.072;11.682;2023-05-07T05:07:44;6.95;;;5.93;;
21472;SDS011;10898;48.072;11.682;2023-05-07T05:09:46;5.70;;;5.20;;
21472;SDS011;10898;48.072;11.682;2023-05-07T05:11:49;6.05;;;5.35;;
21472;SDS011;10898;48.072;11.682;2023-05-07T05:13:51;7.22;;;5.90;;
21472;SDS011;10898;48.072;11.682;2023-05-07T05:15:53;6.65;;;5.53;;
21472;SDS011;10898;48.072;11.682;2023-05-07T05:17:55;5.97;;;5.38;;
21472;SDS011;10898;48.072;11.682;2023-05-07T05:19:58;6.20;;;5.60;;
21472;SDS011;10898;48.072;11.682;2023-05-07T05:22:00;6.72;;;5.85;;
21472;SDS011;10898;48.072;11.682;2023-05-07T05:24:05;6.70;;;5.60;;
21472;SDS011;10898;48.072;11.682;2023-05-07T05:26:07;7.38;;;6.05;;
21472;SDS011;10898;48.072;11.682;2023-05-07T05:28:09;6.13;;;5.53;;
21472;SDS011;10898;48.072;11.682;2023-05-07T05:30:11;6.22;;;5.72;;
21472;SDS011;10898;48.072;11.682;2023-05-07T05:32:14;6.65;;;6.15;;
21472;SDS011;10898;48.072;11.682;2023-05-07T05:34:16;7.10;;;6.50;;
21472;SDS011;10898;48.072;11.682;2023-05-07T05:36:20;6.65;;;6.05;;
21472;SDS011;10898;48.072;11.682;2023-05-07T05:38:22;6.68;;;6.07;;
21472;SDS011;10898;48.072;11.682;2023-05-07T05:40:25;6.45;;;5.78;;
21472;SDS011;10898;48.072;11.682;2023-05-07T05:42:27;7.53;;;5.78;;
21472;SDS011;10898;48.072;11.682;2023-05-07T05:44:29;6.22;;;5.72;;
21472;SDS011;10898;48.072;11.682;2023-05-07T05:46:31;5.75;;;5.25;;
21472;SDS011;10898;48.072;11.682;2023-05-07T05:48:37;6.57;;;5.90;;
21472;SDS011;10898;48.072;11.682;2023-05-07T05:50:39;6.43;;;5.82;;
21472;SDS011;10898;48.072;11.682;2023-05-07T05:52:41;7.00;;;6.40;;
21472;SDS011;10898;48.072;11.682;2023-05-07T05:54:43;6.38;;;5.78;;
21472;SDS011;10898;48.072;11.682;2023-05-07T05:56:45;8.35;;;6.18;;
21472;SDS011;10898;48.072;11.682;2023-05-07T05:58:48;7.22;;;6.35;;
21472;SDS011;10898;48.072;11.682;2023-05-07T06:00:50;6.60;;;5.97;;
21472;SDS011;10898;48.072;11.682;2023-05-07T06:02:53;8.15;;;5.97;;
21472;SDS011;10898;48.072;11.682;2023-05-07T06:04:56;6.43;;;5.80;;
21472;SDS011;10898;48.072;11.682;2023-05-07T06:06:58;6.13;;;5.60;;
21472;SDS011;10898;48.072;11.682;2023-05-07T06:09:00;6.15;;;5.55;;
21472;SDS011;10898;48.072;11.682;2023-05-07T06:11:02;5.93;;;5.20;;
21472;SDS011;10898;48.072;11.682;2023-05-07T06:13:04;9.30;;;5.57;;
21472;SDS011;10898;48.072;11.682;2023-05-07T06:15:07;5.63;;;5.13;;
21472;SDS011;10898;48.072;11.682;2023-05-07T06:17:09;5.35;;;4.85;;
21472;SDS011;10898;48.072;11.682;2023-05-07T06:19:11;4.95;;;4.30;;
21472;SDS011;10898;48.072;11.682;2023-05-07T06:21:13;5.13;;;4.63;;
21472;SDS011;10898;48.072;11.682;2023-05-07T06:23:16;5.47;;;4.82;;
21472;SDS011;10898;48.072;11.682;2023-05-07T06:25:18;4.93;;;4.53;;
21472;SDS011;10898;48.072;11.682;2023-05-07T06:27:21;4.80;;;4.28;;
21472;SDS011;10898;48.072;11.682;2023-05-07T06:29:23;5.40;;;4.20;;
21472;SDS011;10898;48.072;11.682;2023-05-07T06:31:29;5.25;;;4.38;;
21472;SDS011;10898;48.072;11.682;2023-05-07T06:33:32;4.72;;;4.30;;
21472;SDS011;10898;48.072;11.682;2023-05-07T06:35:36;6.00;;;4.20;;
21472;SDS011;10898;48.072;11.682;2023-05-07T06:37:38;5.07;;;4.57;;
21472;SDS011;10898;48.072;11.682;2023-05-07T06:39:43;4.80;;;4.40;;
21472;SDS011;10898;48.072;11.682;2023-05-07T06:41:45;5.78;;;4.70;;
21472;SDS011;10898;48.072;11.682;2023-05-07T06:43:48;5.70;;;4.55;;
21472;SDS011;10898;48.072;11.682;2023-05-07T06:45:50;5.45;;;4.70;;
21472;SDS011;10898;48.072;11.682;2023-05-07T06:47:52;5.43;;;4.53;;
21472;SDS011;10898;48.072;11.682;2023-05-07T06:49:55;5.05;;;4.28;;
21472;SDS011;10898;48.072;11.682;2023-05-07T06:51:57;4.85;;;4.35;;
21472;SDS011;10898;48.072;11.682;2023-05-07T06:53:59;4.43;;;4.03;;
21472;SDS011;10898;48.072;11.682;2023-05-07T06:56:01;4.57;;;4.00;;
21472;SDS011;10898;48.072;11.682;2023-05-07T06:58:04;4.10;;;3.78;;
21472;SDS011;10898;48.072;11.682;2023-05-07T07:00:09;4.00;;;3.50;;
21472;SDS011;10898;48.072;11.682;2023-05-07T07:02:12;5.40;;;3.50;;
21472;SDS011;10898;48.072;11.682;2023-05-07T07:04:16;4.55;;;3.35;;
21472;SDS011;10898;48.072;11.682;2023-05-07T07:06:18;5.03;;;3.30;;
21472;SDS011;10898;48.072;11.682;2023-05-07T07:08:21;4.00;;;3.50;;
21472;SDS011;10898;48.072;11.682;2023-05-07T07:12:26;3.65;;;3.35;;
21472;SDS011;10898;48.072;11.682;2023-05-07T07:14:30;3.03;;;2.83;;
21472;SDS011;10898;48.072;11.682;2023-05-07T07:16:32;5.25;;;3.50;;
21472;SDS011;10898;48.072;11.682;2023-05-07T07:18:34;5.00;;;3.08;;
21472;SDS011;10898;48.072;11.682;2023-05-07T07:20:37;4.95;;;2.90;;
21472;SDS011;10898;48.072;11.682;2023-05-07T07:22:39;3.30;;;2.75;;
21472;SDS011;10898;48.072;11.682;2023-05-07T07:24:41;3.83;;;3.28;;
21472;SDS011;10898;48.072;11.682;2023-05-07T07:26:44;3.25;;;2.90;;
21472;SDS011;10898;48.072;11.682;2023-05-07T07:28:46;4.18;;;3.00;;
21472;SDS011;10898;48.072;11.682;2023-05-07T07:30:48;3.97;;;2.85;;
21472;SDS011;10898;48.072;11.682;2023-05-07T07:32:51;3.55;;;2.42;;
21472;SDS011;10898;48.072;11.682;2023-05-07T07:34:53;3.03;;;2.72;;
21472;SDS011;10898;48.072;11.682;2023-05-07T07:36:56;3.67;;;2.90;;
21472;SDS011;10898;48.072;11.682;2023-05-07T07:38:58;3.10;;;2.80;;
21472;SDS011;10898;48.072;11.682;2023-05-07T07:41:00;5.05;;;2.83;;
21472;SDS011;10898;48.072;11.682;2023-05-07T07:45:06;3.38;;;2.70;;
21472;SDS011;10898;48.072;11.682;2023-05-07T07:47:08;3.80;;;2.90;;
21472;SDS011;10898;48.072;11.682;2023-05-07T07:49:11;4.70;;;3.08;;
21472;SDS011;10898;48.072;11.682;2023-05-07T07:51:13;4.00;;;3.13;;
21472;SDS011;10898;48.072;11.682;2023-05-07T07:53:15;4.85;;;3.85;;
21472;SDS011;10898;48.072;11.682;2023-05-07T07:55:19;3.13;;;2.92;;
21472;SDS011;10898;48.072;11.682;2023-05-07T07:57:24;3.05;;;2.75;;
21472;SDS011;10898;48.072;11.682;2023-05-07T07:59:26;3.55;;;3.10;;
21472;SDS011;10898;48.072;11.682;2023-05-07T08:01:29;3.92;;;3.03;;
21472;SDS011;10898;48.072;11.682;2023-05-07T08:03:31;3.45;;;3.15;;
21472;SDS011;10898;48.072;11.682;2023-05-07T08:07:36;3.97;;;2.95;;
21472;SDS011;10898;48.072;11.682;2023-05-07T08:09:39;5.45;;;3.50;;
21472;SDS011;10898;48.072;11.682;2023-05-07T08:11:41;3.85;;;3.30;;
21472;SDS011;10898;48.072;11.682;2023-05-07T08:13:43;3.95;;;3.08;;
21472;SDS011;10898;48.072;11.682;2023-05-07T08:15:46;5.55;;;3.17;;
21472;SDS011;10898;48.072;11.682;2023-05-07T08:17:48;3.67;;;3.38;;
21472;SDS011;10898;48.072;11.682;2023-05-07T08:19:50;4.45;;;2.97;;
21472;SDS011;10898;48.072;11.682;2023-05-07T08:21:53;6.15;;;3.10;;
21472;SDS011;10898;48.072;11.682;2023-05-07T08:23:56;5.07;;;3.30;;
21472;SDS011;10898;48.072;11.682;2023-05-07T08:25:58;4.25;;;3.33;;
21472;SDS011;10898;48.072;11.682;2023-05-07T08:28:00;3.20;;;2.97;;
21472;SDS011;10898;48.072;11.682;2023-05-07T08:30:04;4.93;;;3.00;;
21472;SDS011;10898;48.072;11.682;2023-05-07T08:32:06;3.55;;;3.25;;
21472;SDS011;10898;48.072;11.682;2023-05-07T08:34:09;3.30;;;2.90;;
21472;SDS011;10898;48.072;11.682;2023-05-07T08:36:11;4.05;;;2.78;;
21472;SDS011;10898;48.072;11.682;2023-05-07T08:38:13;4.30;;;2.78;;
21472;SDS011;10898;48.072;11.682;2023-05-07T08:40:15;4.10;;;3.22;;
21472;SDS011;10898;48.072;11.682;2023-05-07T08:42:18;5.30;;;3.05;;
21472;SDS011;10898;48.072;11.682;2023-05-07T08:44:22;4.05;;;3.25;;
21472;SDS011;10898;48.072;11.682;2023-05-07T08:46:24;3.60;;;2.72;;
21472;SDS011;10898;48.072;11.682;2023-05-07T08:48:27;3.90;;;3.30;;
21472;SDS011;10898;48.072;11.682;2023-05-07T08:50:31;5.20;;;2.92;;
21472;SDS011;10898;48.072;11.682;2023-05-07T08:52:33;4.72;;;3.03;;
21472;SDS011;10898;48.072;11.682;2023-05-07T08:54:37;3.88;;;3.20;;
21472;SDS011;10898;48.072;11.682;2023-05-07T08:56:39;4.90;;;3.10;;
21472;SDS011;10898;48.072;11.682;2023-05-07T08:58:42;4.07;;;3.25;;
21472;SDS011;10898;48.072;11.682;2023-05-07T09:00:45;3.92;;;3.13;;
21472;SDS011;10898;48.072;11.682;2023-05-07T09:02:48;4.60;;;2.78;;
21472;SDS011;10898;48.072;11.682;2023-05-07T09:04:51;4.47;;;2.78;;
21472;SDS011;10898;48.072;11.682;2023-05-07T09:06:54;3.25;;;2.50;;
21472;SDS011;10898;48.072;11.682;2023-05-07T09:08:57;4.07;;;2.55;;
21472;SDS011;10898;48.072;11.682;2023-05-07T09:11:02;3.85;;;3.25;;
21472;SDS011;10898;48.072;11.682;2023-05-07T09:13:04;3.03;;;2.72;;
21472;SDS011;10898;48.072;11.682;2023-05-07T09:15:07;2.92;;;2.40;;
21472;SDS011;10898;48.072;11.682;2023-05-07T09:17:10;3.25;;;2.80;;
21472;SDS011;10898;48.072;11.682;2023-05-07T09:19:12;4.60;;;3.05;;
21472;SDS011;10898;48.072;11.682;2023-05-07T09:21:14;5.32;;;3.60;;
21472;SDS011;10898;48.072;11.682;2023-05-07T09:23:17;4.35;;;3.40;;
21472;SDS011;10898;48.072;11.682;2023-05-07T09:25:27;6.88;;;3.78;;
21472;SDS011;10898;48.072;11.682;2023-05-07T09:27:30;4.18;;;3.13;;
21472;SDS011;10898;48.072;11.682;2023-05-07T09:29:32;3.50;;;2.72;;
21472;SDS011;10898;48.072;11.682;2023-05-07T09:31:37;2.95;;;2.75;;
21472;SDS011;10898;48.072;11.682;2023-05-07T09:33:39;4.03;;;2.67;;
21472;SDS011;10898;48.072;11.682;2023-05-07T09:35:41;4.82;;;2.95;;
21472;SDS011;10898;48.072;11.682;2023-05-07T09:37:44;3.75;;;2.17;;
21472;SDS011;10898;48.072;11.682;2023-05-07T09:39:47;5.13;;;2.28;;
21472;SDS011;10898;48.072;11.682;2023-05-07T09:41:49;3.05;;;1.90;;
21472;SDS011;10898;48.072;11.682;2023-05-07T09:43:53;2.42;;;2.22;;
21472;SDS011;10898;48.072;11.682;2023-05-07T09:47:58;3.10;;;2.30;;
21472;SDS011;10898;48.072;11.682;2023-05-07T09:50:00;2.42;;;2.22;;
21472;SDS011;10898;48.072;11.682;2023-05-07T09:52:07;2.40;;;2.15;;
21472;SDS011;10898;48.072;11.682;2023-05-07T09:54:12;2.70;;;2.50;;
21472;SDS011;10898;48.072;11.682;2023-05-07T09:56:15;4.00;;;2.00;;
21472;SDS011;10898;48.072;11.682;2023-05-07T09:58:18;2.38;;;1.95;;
21472;SDS011;10898;48.072;11.682;2023-05-07T10:00:21;4.22;;;2.20;;
21472;SDS011;10898;48.072;11.682;2023-05-07T10:02:25;2.92;;;1.83;;
21472;SDS011;10898;48.072;11.682;2023-05-07T10:04:31;4.20;;;2.22;;
21472;SDS011;10898;48.072;11.682;2023-05-07T10:08:36;3.80;;;1.73;;
21472;SDS011;10898;48.072;11.682;2023-05-07T10:10:38;3.35;;;2.17;;
21472;SDS011;10898;48.072;11.682;2023-05-07T10:12:41;2.75;;;2.17;;
21472;SDS011;10898;48.072;11.682;2023-05-07T10:14:44;1.45;;;1.35;;
21472;SDS011;10898;48.072;11.682;2023-05-07T10:16:49;5.22;;;2.25;;
21472;SDS011;10898;48.072;11.682;2023-05-07T10:18:51;4.95;;;2.22;;
21472;SDS011;10898;48.072;11.682;2023-05-07T10:20:54;2.65;;;2.22;;
21472;SDS011;10898;48.072;11.682;2023-05-07T10:22:56;3.00;;;2.25;;
21472;SDS011;10898;48.072;11.682;2023-05-07T10:24:59;5.00;;;2.30;;
21472;SDS011;10898;48.072;11.682;2023-05-07T10:27:08;2.70;;;2.22;;
21472;SDS011;10898;48.072;11.682;2023-05-07T10:32:14;2.70;;;2.50;;
21472;SDS011;10898;48.072;11.682;2023-05-07T10:33:54;2.30;;;1.90;;
21472;SDS011;10898;48.072;11.682;2023-05-07T10:35:58;3.63;;;2.63;;
21472;SDS011;10898;48.072;11.682;2023-05-07T10:38:01;5.32;;;2.20;;
21472;SDS011;10898;48.072;11.682;2023-05-07T10:40:04;3.15;;;1.92;;
21472;SDS011;10898;48.072;11.682;2023-05-07T10:42:11;4.35;;;2.28;;
21472;SDS011;10898;48.072;11.682;2023-05-07T10:44:26;2.05;;;1.83;;
21472;SDS011;10898;48.072;11.682;2023-05-07T10:46:29;2.88;;;2.05;;
21472;SDS011;10898;48.072;11.682;2023-05-07T10:48:34;2.72;;;2.42;;
21472;SDS011;10898;48.072;11.682;2023-05-07T10:50:38;2.10;;;1.88;;
21472;SDS011;10898;48.072;11.682;2023-05-07T10:52:40;2.42;;;2.03;;
21472;SDS011;10898;48.072;11.682;2023-05-07T10:54:42;3.33;;;2.45;;
21472;SDS011;10898;48.072;11.682;2023-05-07T10:56:45;2.67;;;2.05;;
21472;SDS011;10898;48.072;11.682;2023-05-07T10:58:48;2.05;;;1.90;;
21472;SDS011;10898;48.072;11.682;2023-05-07T11:00:55;4.18;;;2.35;;
21472;SDS011;10898;48.072;11.682;2023-05-07T11:05:18;3.17;;;1.83;;
21472;SDS011;10898;48.072;11.682;2023-05-07T11:07:28;1.90;;;1.65;;
21472;SDS011;10898;48.072;11.682;2023-05-07T11:10:16;3.72;;;2.25;;
21472;SDS011;10898;48.072;11.682;2023-05-07T11:11:53;1.95;;;1.73;;
21472;SDS011;10898;48.072;11.682;2023-05-07T11:13:57;1.95;;;1.70;;
21472;SDS011;10898;48.072;11.682;2023-05-07T11:15:59;1.70;;;1.60;;
21472;SDS011;10898;48.072;11.682;2023-05-07T11:18:01;2.10;;;1.88;;
21472;SDS011;10898;48.072;11.682;2023-05-07T11:20:05;2.92;;;2.00;;
21472;SDS011;10898;48.072;11.682;2023-05-07T11:22:25;3.38;;;1.90;;
21472;SDS011;10898;48.072;11.682;2023-05-07T11:24:29;2.03;;;1.85;;
21472;SDS011;10898;48.072;11.682;2023-05-07T11:28:45;2.63;;;2.42;;
21472;SDS011;10898;48.072;11.682;2023-05-07T11:30:48;2.50;;;2.30;;
21472;SDS011;10898;48.072;11.682;2023-05-07T11:32:50;4.57;;;3.00;;
21472;SDS011;10898;48.072;11.682;2023-05-07T11:34:55;3.00;;;2.70;;
21472;SDS011;10898;48.072;11.682;2023-05-07T11:36:58;2.78;;;2.00;;
21472;SDS011;10898;48.072;11.682;2023-05-07T11:39:01;2.65;;;2.20;;
21472;SDS011;10898;48.072;11.682;2023-05-07T11:41:03;3.63;;;2.33;;
21472;SDS011;10898;48.072;11.682;2023-05-07T11:43:11;2.55;;;2.17;;
21472;SDS011;10898;48.072;11.682;2023-05-07T11:45:14;2.50;;;2.22;;
21472;SDS011;10898;48.072;11.682;2023-05-07T11:47:26;4.25;;;2.50;;
21472;SDS011;10898;48.072;11.682;2023-05-07T11:49:28;3.92;;;2.58;;
21472;SDS011;10898;48.072;11.682;2023-05-07T11:51:31;2.80;;;2.60;;
21472;SDS011;10898;48.072;11.682;2023-05-07T11:53:37;3.38;;;2.90;;
21472;SDS011;10898;48.072;11.682;2023-05-07T11:55:40;3.70;;;3.30;;
21472;SDS011;10898;48.072;11.682;2023-05-07T11:57:42;2.75;;;2.53;;
21472;SDS011;10898;48.072;11.682;2023-05-07T11:59:44;2.70;;;2.47;;
21472;SDS011;10898;48.072;11.682;2023-05-07T12:01:48;2.83;;;2.63;;
21472;SDS011;10898;48.072;11.682;2023-05-07T12:03:50;3.95;;;3.08;;
21472;SDS011;10898;48.072;11.682;2023-05-07T12:05:52;4.43;;;2.50;;
21472;SDS011;10898;48.072;11.682;2023-05-07T12:07:55;4.45;;;2.72;;
21472;SDS011;10898;48.072;11.682;2023-05-07T12:09:58;2.67;;;2.40;;
21472;SDS011;10898;48.072;11.682;2023-05-07T12:12:03;2.53;;;2.33;;
21472;SDS011;10898;48.072;11.682;2023-05-07T12:14:06;2.95;;;2.55;;
21472;SDS011;10898;48.072;11.682;2023-05-07T12:16:11;4.28;;;3.17;;
21472;SDS011;10898;48.072;11.682;2023-05-07T12:18:14;3.08;;;2.88;;
21472;SDS011;10898;48.072;11.682;2023-05-07T12:20:16;3.60;;;2.95;;
21472;SDS011;10898;48.072;11.682;2023-05-07T12:22:19;4.57;;;2.83;;
21472;SDS011;10898;48.072;11.682;2023-05-07T12:24:21;4.95;;;2.90;;
21472;SDS011;10898;48.072;11.682;2023-05-07T12:26:23;3.95;;;3.50;;
21472;SDS011;10898;48.072;11.682;2023-05-07T12:28:26;3.50;;;3.15;;
21472;SDS011;10898;48.072;11.682;2023-05-07T12:30:28;4.38;;;2.80;;
21472;SDS011;10898;48.072;11.682;2023-05-07T12:32:30;4.40;;;3.25;;
21472;SDS011;10898;48.072;11.682;2023-05-07T12:34:37;5.53;;;3.47;;
21472;SDS011;10898;48.072;11.682;2023-05-07T12:36:40;3.17;;;2.78;;
21472;SDS011;10898;48.072;11.682;2023-05-07T12:38:42;5.43;;;3.03;;
21472;SDS011;10898;48.072;11.682;2023-05-07T12:40:48;3.22;;;2.95;;